createdAt,value
2023-03-22T00:02:00.359Z,86.73
2023-03-22T00:05:06.707Z,86.55
2023-03-22T00:08:11.354Z,85.67
2023-03-22T00:11:15.474Z,84.34
2023-03-22T00:14:19.874Z,85.73
2023-03-22T00:17:26.482Z,84.02
2023-03-22T00:20:34.020Z,83.14
2023-03-22T00:23:38.294Z,84.82
2023-03-22T00:26:42.382Z,84.36
2023-03-22T00:29:46.334Z,87.11
2023-03-22T00:32:50.430Z,86.25
2023-03-22T00:35:59.380Z,85.82
2023-03-22T00:39:03.509Z,85.88
2023-03-22T00:42:07.800Z,86.67
2023-03-22T00:45:13.639Z,86.05
2023-03-22T00:48:17.660Z,85.08
2023-03-22T00:51:23.058Z,84.05
2023-03-22T00:54:27.647Z,83.52
2023-03-22T00:57:31.618Z,82.64
2023-03-22T01:00:35.907Z,83.17
2023-03-22T01:03:39.980Z,82.30
2023-03-22T01:06:47.445Z,83.56
2023-03-22T01:09:52.477Z,82.68
2023-03-22T01:12:57.183Z,83.98
2023-03-22T01:16:01.265Z,86.01
2023-03-22T01:19:05.501Z,85.54
2023-03-22T01:22:11.119Z,84.06
2023-03-22T01:25:15.272Z,84.31
2023-03-22T01:28:19.428Z,83.33
2023-03-22T01:31:23.426Z,82.76
2023-03-22T01:34:28.086Z,83.43
2023-03-22T01:37:34.304Z,83.95
2023-03-22T01:40:39.285Z,83.94
2023-03-22T01:43:44.513Z,84.51
2023-03-22T01:46:50.063Z,84.13
2023-03-22T01:49:54.526Z,84.82
2023-03-22T01:53:01.876Z,83.96
2023-03-22T01:56:11.205Z,84.28
2023-03-22T01:59:16.682Z,86.36
2023-03-22T02:02:35.797Z,86.12
2023-03-22T02:05:50.404Z,86.16
2023-03-22T02:08:58.263Z,87.15
2023-03-22T02:12:13.921Z,87.41
2023-03-22T02:15:25.592Z,87.27
2023-03-22T02:19:03.169Z,86.77
2023-03-22T02:22:31.572Z,87.76
2023-03-22T02:25:57.094Z,88.60
2023-03-22T02:29:09.413Z,89.15
2023-03-22T02:32:29.826Z,89.36
2023-03-22T02:36:06.005Z,89.36
2023-03-22T02:39:17.300Z,88.31
2023-03-22T02:42:39.196Z,88.66
2023-03-22T02:45:48.773Z,88.06
2023-03-22T02:48:59.275Z,88.09
2023-03-22T02:52:10.920Z,88.50
2023-03-22T02:55:22.542Z,88.06
2023-03-22T02:58:30.745Z,86.27
2023-03-22T03:01:39.141Z,85.79
2023-03-22T03:04:47.952Z,84.88
2023-03-22T03:07:56.377Z,85.44
2023-03-22T03:11:02.265Z,85.41
2023-03-22T03:14:06.854Z,87.38
2023-03-22T03:17:22.060Z,86.95
2023-03-22T03:20:34.693Z,86.54
2023-03-22T03:23:51.174Z,86.79
2023-03-22T03:27:02.744Z,87.03
2023-03-22T03:30:12.408Z,87.53
2023-03-22T03:33:24.755Z,89.12
2023-03-22T03:36:30.236Z,87.97
2023-03-22T03:39:39.264Z,87.89
2023-03-22T03:42:49.993Z,88.20
2023-03-22T03:45:55.517Z,88.96
2023-03-22T03:49:00.253Z,88.08
2023-03-22T03:52:06.070Z,87.35
2023-03-22T03:55:11.034Z,87.94
2023-03-22T03:58:17.657Z,88.12
2023-03-22T04:01:24.481Z,87.81
2023-03-22T04:04:39.327Z,89.38
2023-03-22T04:07:43.281Z,90.55
2023-03-22T04:10:52.054Z,90.94
2023-03-22T04:13:59.059Z,90.83
2023-03-22T04:17:03.378Z,91.98
2023-03-22T04:20:11.155Z,92.55
2023-03-22T04:23:15.424Z,92.25
2023-03-22T04:26:22.164Z,92.86
2023-03-22T04:29:48.736Z,93.30
2023-03-22T04:33:12.598Z,92.51
2023-03-22T04:36:41.094Z,92.26
2023-03-22T04:39:55.281Z,91.91
2023-03-22T04:43:29.145Z,91.79
2023-03-22T04:46:39.548Z,90.75
2023-03-22T04:49:44.584Z,90.78
2023-03-22T04:52:50.185Z,89.65
2023-03-22T04:55:57.436Z,89.91
2023-03-22T04:59:03.719Z,89.05
2023-03-22T05:02:10.655Z,89.19
2023-03-22T05:05:19.151Z,88.30
2023-03-22T05:08:27.281Z,88.24
2023-03-22T05:11:31.450Z,87.35
2023-03-22T05:14:49.366Z,86.10
2023-03-22T05:17:59.878Z,87.00
2023-03-22T05:21:07.054Z,86.38
2023-03-22T05:24:12.552Z,86.94
2023-03-22T05:27:31.744Z,87.26
2023-03-22T05:30:56.657Z,84.72
2023-03-22T05:34:15.255Z,85.03
2023-03-22T05:37:21.487Z,85.20
2023-03-22T05:40:29.905Z,85.96
2023-03-22T05:43:34.579Z,85.94
2023-03-22T05:46:39.153Z,86.99
2023-03-22T05:50:01.631Z,86.59
2023-03-22T05:53:07.339Z,87.22
2023-03-22T05:56:24.574Z,89.67
2023-03-22T05:59:37.151Z,91.72
2023-03-22T06:02:44.437Z,91.64
2023-03-22T06:05:51.111Z,90.34
2023-03-22T06:09:10.645Z,91.21
2023-03-22T06:12:22.914Z,89.39
2023-03-22T06:15:30.988Z,87.43
2023-03-22T06:18:37.769Z,87.21
2023-03-22T06:21:50.874Z,86.15
2023-03-22T06:24:55.526Z,87.36
2023-03-22T06:28:09.568Z,86.76
2023-03-22T06:31:15.989Z,89.18
2023-03-22T06:34:30.732Z,88.85
2023-03-22T06:37:36.705Z,88.61
2023-03-22T06:40:41.557Z,88.94
2023-03-22T06:43:46.046Z,88.55
2023-03-22T06:47:05.215Z,87.53
2023-03-22T06:50:24.464Z,86.88
2023-03-22T06:53:47.640Z,87.20
2023-03-22T06:56:51.738Z,89.78
2023-03-22T06:59:55.845Z,87.99
2023-03-22T07:03:01.195Z,87.32
2023-03-22T07:06:27.446Z,87.10
2023-03-22T07:09:33.937Z,90.75
2023-03-22T07:12:38.867Z,91.53
2023-03-22T07:15:48.598Z,95.40
2023-03-22T07:19:28.120Z,94.92
2023-03-22T07:22:34.569Z,95.90
2023-03-22T07:25:40.382Z,95.97
2023-03-22T07:29:07.328Z,97.34
2023-03-22T07:32:12.064Z,96.44
2023-03-22T07:35:41.438Z,95.84
2023-03-22T07:38:45.757Z,93.85
2023-03-22T07:41:56.838Z,93.03
2023-03-22T07:45:00.904Z,92.30
2023-03-22T07:48:05.408Z,90.38
2023-03-22T07:51:30.276Z,89.90
2023-03-22T07:54:35.301Z,92.63
2023-03-22T07:57:44.212Z,91.73
2023-03-22T08:00:50.038Z,91.93
2023-03-22T08:04:14.418Z,89.99
2023-03-22T08:07:32.063Z,88.38
2023-03-22T08:10:36.202Z,87.78
2023-03-22T08:13:42.962Z,87.39
2023-03-22T08:16:48.320Z,87.29
2023-03-22T08:19:52.595Z,86.85
2023-03-22T08:23:01.439Z,87.38
2023-03-22T08:26:29.269Z,86.67
2023-03-22T08:29:40.660Z,86.98
2023-03-22T08:32:45.102Z,87.29
2023-03-22T08:35:49.345Z,87.29
2023-03-22T08:38:54.712Z,84.57
2023-03-22T08:42:08.878Z,86.07
2023-03-22T08:45:15.369Z,85.46
2023-03-22T08:48:31.128Z,84.69
2023-03-22T08:51:52.926Z,84.72
2023-03-22T08:55:22.752Z,87.38
2023-03-22T08:58:36.346Z,89.00
2023-03-22T09:01:58.587Z,87.67
2023-03-22T09:05:02.972Z,89.72
2023-03-22T09:08:08.197Z,87.65
2023-03-22T09:11:18.176Z,87.47
2023-03-22T09:14:24.538Z,87.29
2023-03-22T09:17:31.125Z,89.24
2023-03-22T09:20:35.397Z,89.05
2023-03-22T09:23:42.791Z,88.55
2023-03-22T09:26:48.809Z,87.41
2023-03-22T09:29:54.972Z,88.48
2023-03-22T09:33:02.374Z,86.86
2023-03-22T09:36:08.231Z,88.42
2023-03-22T09:39:13.240Z,87.12
2023-03-22T09:42:29.799Z,86.97
2023-03-22T09:45:41.532Z,88.14
2023-03-22T09:48:49.531Z,89.24
2023-03-22T09:51:55.767Z,85.59
2023-03-22T09:55:01.317Z,84.60
2023-03-22T09:58:15.192Z,83.99
2023-03-22T10:01:28.519Z,84.81
2023-03-22T10:04:50.276Z,84.56
2023-03-22T10:08:07.985Z,84.34
2023-03-22T10:11:22.374Z,82.43
2023-03-22T10:14:32.515Z,81.97
2023-03-22T10:17:38.511Z,81.02
2023-03-22T10:20:49.466Z,81.12
2023-03-22T10:23:58.826Z,79.72
2023-03-22T10:27:04.114Z,81.08
2023-03-22T10:30:16.030Z,81.44
2023-03-22T10:33:28.314Z,79.33
2023-03-22T10:36:37.414Z,77.59
2023-03-22T10:39:46.719Z,77.38
2023-03-22T10:42:56.372Z,76.39
2023-03-22T10:46:03.035Z,75.69
2023-03-22T10:49:08.896Z,76.40
2023-03-22T10:52:29.380Z,74.25
2023-03-22T10:55:33.542Z,73.75
2023-03-22T10:58:37.699Z,71.84
2023-03-22T11:01:46.790Z,72.35
2023-03-22T11:04:52.975Z,71.78
2023-03-22T11:08:16.707Z,72.18
2023-03-22T11:11:26.693Z,71.67
2023-03-22T11:14:33.584Z,70.90
2023-03-22T11:17:40.493Z,69.77
2023-03-22T11:20:57.524Z,68.09
2023-03-22T11:24:06.329Z,67.70
2023-03-22T11:27:21.832Z,68.18
2023-03-22T11:30:28.257Z,66.37
2023-03-22T11:33:33.339Z,66.25
2023-03-22T11:36:45.425Z,66.15
2023-03-22T11:40:00.704Z,65.85
2023-03-22T11:43:19.528Z,64.41
2023-03-22T11:46:24.449Z,63.09
2023-03-22T11:49:36.772Z,62.48
2023-03-22T11:52:40.934Z,63.70
2023-03-22T11:55:47.633Z,63.02
2023-03-22T11:59:01.258Z,62.06
2023-03-22T12:02:15.642Z,61.35
2023-03-22T12:05:23.277Z,65.19
2023-03-22T12:08:34.489Z,65.77
2023-03-22T12:11:42.208Z,65.30
2023-03-22T12:14:53.428Z,64.71
2023-03-22T12:18:04.960Z,65.40
2023-03-22T12:21:11.801Z,65.62
2023-03-22T12:24:26.948Z,65.42
2023-03-22T12:27:37.904Z,64.18
2023-03-22T12:30:46.433Z,64.37
2023-03-22T12:33:53.899Z,62.45
2023-03-22T12:36:59.201Z,62.82
2023-03-22T12:40:08.075Z,62.87
2023-03-22T12:43:17.703Z,60.46
2023-03-22T12:46:25.922Z,61.93
2023-03-22T12:49:40.823Z,61.01
2023-03-22T12:52:48.682Z,61.02
2023-03-22T12:55:53.585Z,59.65
2023-03-22T12:59:04.370Z,60.30
2023-03-22T13:02:17.356Z,59.51
2023-03-22T13:05:21.639Z,59.21
2023-03-22T13:08:25.868Z,58.47
2023-03-22T13:11:30.019Z,57.51
2023-03-22T13:14:59.430Z,55.79
2023-03-22T13:18:04.870Z,55.61
2023-03-22T13:21:15.270Z,56.13
2023-03-22T13:24:24.161Z,55.59
2023-03-22T13:27:38.185Z,56.01
2023-03-22T13:30:52.893Z,56.42
2023-03-22T13:33:58.312Z,57.27
2023-03-22T13:37:04.061Z,57.94
2023-03-22T13:40:15.261Z,58.57
2023-03-22T13:43:29.131Z,58.58
2023-03-22T13:46:51.201Z,59.45
2023-03-22T13:50:02.434Z,60.02
2023-03-22T13:53:09.727Z,59.39
2023-03-22T13:56:15.988Z,58.86
2023-03-22T13:59:27.577Z,60.06
2023-03-22T14:02:40.165Z,60.02
2023-03-22T14:05:47.681Z,60.24
2023-03-22T14:08:56.124Z,61.30
2023-03-22T14:12:09.047Z,61.02
2023-03-22T14:15:19.207Z,61.61
2023-03-22T14:18:28.367Z,60.83
2023-03-22T14:21:36.308Z,61.10
